Time;durP1;ratioP1;P1;durP2;ratioP2;P2;SDS_P1;SDS_P2;PMS_P1;PMS_P2;Temp;Humidity;BMP_temperature;BMP_pressure;BME280_temperature;BME280_humidity;BME280_pressure;Samples;Min_cycle;Max_cycle;Signal;HPM_P1;HPM_P2
2020/12/05 00:00:44;;;;;;;60.55;28.27;;;;;;;;;;5045595;28;20042;-66
2020/12/05 00:03:10;;;;;;;53.67;24.08;;;;;;;;;;5045607;28;20041;-66
2020/12/05 00:05:40;;;;;;;50.75;22.35;;;;;;;;;;5038147;28;20049;-66
2020/12/05 00:08:06;;;;;;;55.30;28.50;;;;;;;;;;5041396;28;20069;-66
2020/12/05 00:10:32;;;;;;;52.33;26.13;;;;;;;;;;5043542;28;20539;-66
2020/12/05 00:13:00;;;;;;;54.05;27.23;;;;;;;;;;5040984;28;20151;-66
2020/12/05 00:15:26;;;;;;;59.95;28.23;;;;;;;;;;5040088;28;20042;-67
2020/12/05 00:17:52;;;;;;;60.10;27.00;;;;;;;;;;5047327;28;20044;-67
2020/12/05 00:20:19;;;;;;;55.22;24.08;;;;;;;;;;5047303;28;20126;-67
2020/12/05 00:22:46;;;;;;;53.63;24.20;;;;;;;;;;5052009;28;20500;-67
2020/12/05 00:25:13;;;;;;;55.75;26.85;;;;;;;;;;5048490;28;20044;-66
2020/12/05 00:27:39;;;;;;;63.20;29.37;;;;;;;;;;5045154;28;20456;-67
2020/12/05 00:30:07;;;;;;;58.13;28.05;;;;;;;;;;5050877;28;20052;-67
2020/12/05 00:32:36;;;;;;;64.13;30.98;;;;;;;;;;5043320;28;20511;-67
2020/12/05 00:35:02;;;;;;;61.85;28.60;;;;;;;;;;5053946;28;20049;-66
2020/12/05 00:37:29;;;;;;;57.75;28.08;;;;;;;;;;5047448;28;20499;-67
2020/12/05 00:39:55;;;;;;;61.50;30.33;;;;;;;;;;5048199;28;20043;-67
2020/12/05 00:42:23;;;;;;;65.38;30.23;;;;;;;;;;5041169;28;20045;-66
2020/12/05 00:44:50;;;;;;;64.97;28.15;;;;;;;;;;5029263;28;20051;-67
2020/12/05 00:47:16;;;;;;;67.30;32.38;;;;;;;;;;5040588;28;20524;-66
2020/12/05 00:49:45;;;;;;;62.28;28.92;;;;;;;;;;5028872;28;20045;-66
2020/12/05 00:52:12;;;;;;;60.72;27.08;;;;;;;;;;5049093;28;20051;-67
2020/12/05 00:54:38;;;;;;;58.78;26.33;;;;;;;;;;5046373;28;20045;-66
2020/12/05 00:57:05;;;;;;;58.38;25.13;;;;;;;;;;5041514;28;20482;-66
2020/12/05 00:59:31;;;;;;;57.60;23.48;;;;;;;;;;5039840;28;20155;-67
2020/12/05 01:02:01;;;;;;;59.63;29.00;;;;;;;;;;5038477;28;20049;-66
2020/12/05 01:04:28;;;;;;;61.83;27.73;;;;;;;;;;5044761;28;20045;-67
2020/12/05 01:06:55;;;;;;;65.53;29.55;;;;;;;;;;5052981;28;20047;-67
2020/12/05 01:09:21;;;;;;;61.13;28.30;;;;;;;;;;5045766;28;20045;-66
2020/12/05 01:11:48;;;;;;;59.42;25.30;;;;;;;;;;5050306;28;20490;-66
2020/12/05 01:14:14;;;;;;;54.70;26.77;;;;;;;;;;5042261;28;20037;-67
2020/12/05 01:16:43;;;;;;;57.35;25.88;;;;;;;;;;5044302;28;20037;-66
2020/12/05 01:19:10;;;;;;;61.92;28.42;;;;;;;;;;5043869;28;20599;-66
2020/12/05 01:21:36;;;;;;;61.92;29.60;;;;;;;;;;5043486;28;20041;-66
2020/12/05 01:24:02;;;;;;;67.22;30.90;;;;;;;;;;5029963;28;20649;-66
2020/12/05 01:26:28;;;;;;;57.33;26.33;;;;;;;;;;5041183;28;20124;-66
2020/12/05 01:28:55;;;;;;;60.20;28.98;;;;;;;;;;5048673;28;20493;-67
2020/12/05 01:31:21;;;;;;;63.72;30.52;;;;;;;;;;5039364;28;20119;-67
2020/12/05 01:33:47;;;;;;;63.55;31.02;;;;;;;;;;5042594;28;20048;-66
2020/12/05 01:36:14;;;;;;;65.32;28.58;;;;;;;;;;5044829;28;20037;-66
2020/12/05 01:38:40;;;;;;;65.60;29.33;;;;;;;;;;5051303;28;20405;-67
2020/12/05 01:41:06;;;;;;;65.63;29.40;;;;;;;;;;5048365;28;20049;-66
2020/12/05 01:43:32;;;;;;;69.00;32.28;;;;;;;;;;5060240;28;20094;-66
2020/12/05 01:46:00;;;;;;;65.97;32.90;;;;;;;;;;5055445;28;20145;-67
2020/12/05 01:48:27;;;;;;;;;;;;;;;;;;5047702;28;20049;-66
2020/12/05 01:50:53;;;;;;;72.57;33.05;;;;;;;;;;5044075;28;19921;-66
2020/12/05 01:53:19;;;;;;;70.90;33.78;;;;;;;;;;5051587;28;20391;-66
2020/12/05 01:55:49;;;;;;;78.75;35.15;;;;;;;;;;5044779;28;20056;-66
2020/12/05 01:58:17;;;;;;;76.07;33.78;;;;;;;;;;5055936;28;20042;-67
2020/12/05 02:00:43;;;;;;;;;;;;;;;;;;5040455;28;20504;-67
2020/12/05 02:03:15;;;;;;;72.87;33.10;;;;;;;;;;5049854;28;19925;-66
2020/12/05 02:05:53;;;;;;;73.15;35.53;;;;;;;;;;5041991;28;20045;-67
2020/12/05 02:08:25;;;;;;;74.25;33.58;;;;;;;;;;5059531;28;20080;-67
2020/12/05 02:10:52;;;;;;;76.45;35.38;;;;;;;;;;5051827;28;20489;-66
2020/12/05 02:13:26;;;;;;;76.43;33.78;;;;;;;;;;5052635;28;20535;-67
2020/12/05 02:15:52;;;;;;;83.38;37.17;;;;;;;;;;5058370;28;20045;-67
2020/12/05 02:18:19;;;;;;;81.80;37.97;;;;;;;;;;5057541;28;20051;-66
2020/12/05 02:20:45;;;;;;;77.35;36.53;;;;;;;;;;5045029;28;20313;-67
2020/12/05 02:23:13;;;;;;;62.25;27.55;;;;;;;;;;5046326;28;20492;-67
2020/12/05 02:25:44;;;;;;;88.28;38.83;;;;;;;;;;5046499;28;20049;-67
2020/12/05 02:28:11;;;;;;;88.10;38.53;;;;;;;;;;5046904;28;20048;-67
2020/12/05 02:30:38;;;;;;;88.30;38.90;;;;;;;;;;5058043;28;20052;-67
2020/12/05 02:33:04;;;;;;;83.07;38.45;;;;;;;;;;5056612;28;20049;-67
2020/12/05 02:35:31;;;;;;;86.82;36.70;;;;;;;;;;5061658;28;20052;-66
2020/12/05 02:38:24;;;;;;;87.25;37.25;;;;;;;;;;5050770;28;20049;-66
2020/12/05 02:40:51;;;;;;;82.18;38.10;;;;;;;;;;5042029;28;20544;-67
2020/12/05 02:43:17;;;;;;;87.85;35.38;;;;;;;;;;5044992;28;20064;-66
2020/12/05 02:45:44;;;;;;;77.85;32.65;;;;;;;;;;5049963;28;20041;-67
2020/12/05 02:48:11;;;;;;;87.05;38.53;;;;;;;;;;5039791;28;20061;-66
2020/12/05 02:50:38;;;;;;;77.27;34.53;;;;;;;;;;5043484;28;20072;-67
2020/12/05 02:53:04;;;;;;;87.15;39.63;;;;;;;;;;5043152;28;20049;-66
2020/12/05 02:55:30;;;;;;;80.10;34.20;;;;;;;;;;5046966;28;20033;-67
2020/12/05 02:57:57;;;;;;;89.68;38.08;;;;;;;;;;5049469;28;20049;-67
2020/12/05 03:00:23;;;;;;;96.72;42.13;;;;;;;;;;5047684;28;20461;-66
2020/12/05 03:02:50;;;;;;;87.55;38.85;;;;;;;;;;5054689;28;20041;-66
2020/12/05 03:05:18;;;;;;;89.63;39.65;;;;;;;;;;5043566;28;20076;-67
2020/12/05 03:07:44;;;;;;;89.22;38.20;;;;;;;;;;5044128;28;20042;-67
2020/12/05 03:10:10;;;;;;;92.10;39.20;;;;;;;;;;5049699;28;20045;-67
2020/12/05 03:12:36;;;;;;;89.60;38.38;;;;;;;;;;5048835;28;20044;-67
2020/12/05 03:15:03;;;;;;;87.30;38.67;;;;;;;;;;5043261;28;20033;-65
2020/12/05 03:17:29;;;;;;;91.43;40.45;;;;;;;;;;5038532;28;20045;-65
2020/12/05 03:19:57;;;;;;;;;;;;;;;;;;5044033;28;20049;-65
2020/12/05 03:22:23;;;;;;;86.45;36.35;;;;;;;;;;5049207;28;20300;-66
2020/12/05 03:24:50;;;;;;;85.95;37.20;;;;;;;;;;5039884;28;20478;-66
2020/12/05 03:27:17;;;;;;;96.53;42.40;;;;;;;;;;5046516;28;20038;-65
2020/12/05 03:29:43;;;;;;;97.55;41.58;;;;;;;;;;5039659;28;20296;-65
2020/12/05 03:34:36;;;;;;;107.57;41.75;;;;;;;;;;5046619;28;20037;-66
2020/12/05 03:37:02;;;;;;;92.28;42.25;;;;;;;;;;5028329;28;20052;-65
2020/12/05 03:39:28;;;;;;;95.65;42.92;;;;;;;;;;5041083;28;20044;-66
2020/12/05 03:41:55;;;;;;;101.28;42.70;;;;;;;;;;5052876;28;20049;-65
2020/12/05 03:44:21;;;;;;;94.63;41.40;;;;;;;;;;5048913;28;20033;-65
2020/12/05 03:46:47;;;;;;;98.82;42.28;;;;;;;;;;5045734;28;20036;-66
2020/12/05 03:49:13;;;;;;;98.75;38.75;;;;;;;;;;5046211;28;20083;-65
2020/12/05 03:51:40;;;;;;;105.60;41.70;;;;;;;;;;5049345;28;20412;-65
2020/12/05 03:54:09;;;;;;;111.90;45.58;;;;;;;;;;5051894;28;20036;-65
2020/12/05 03:56:36;;;;;;;106.13;42.05;;;;;;;;;;5044055;28;20055;-66
2020/12/05 03:59:02;;;;;;;97.97;43.30;;;;;;;;;;5050769;28;20104;-66
2020/12/05 04:01:28;;;;;;;104.43;42.13;;;;;;;;;;5045380;28;20056;-66
2020/12/05 04:03:55;;;;;;;95.63;44.47;;;;;;;;;;5057421;28;20065;-66
2020/12/05 04:06:21;;;;;;;105.13;45.13;;;;;;;;;;5054100;28;20076;-66
2020/12/05 04:08:48;;;;;;;104.07;45.83;;;;;;;;;;5050939;28;20045;-65
2020/12/05 04:11:15;;;;;;;104.07;44.30;;;;;;;;;;5059618;28;20045;-65
2020/12/05 04:13:41;;;;;;;105.55;43.53;;;;;;;;;;5048521;28;20382;-66
2020/12/05 04:16:07;;;;;;;99.03;40.97;;;;;;;;;;5049667;28;20040;-66
2020/12/05 04:18:35;;;;;;;97.93;42.90;;;;;;;;;;5032607;28;20037;-66
2020/12/05 04:21:01;;;;;;;106.40;44.33;;;;;;;;;;5037835;28;20043;-65
2020/12/05 04:23:27;;;;;;;105.85;44.05;;;;;;;;;;5043964;28;20029;-66
2020/12/05 04:25:54;;;;;;;84.07;33.08;;;;;;;;;;5051420;28;20037;-66
2020/12/05 04:28:23;;;;;;;104.95;43.63;;;;;;;;;;5055463;28;20038;-65
2020/12/05 04:30:49;;;;;;;102.30;43.80;;;;;;;;;;5045308;28;20041;-65
2020/12/05 04:33:16;;;;;;;107.78;42.70;;;;;;;;;;5049050;28;20033;-66
2020/12/05 04:35:42;;;;;;;106.30;46.03;;;;;;;;;;5045772;28;20071;-65
2020/12/05 04:38:11;;;;;;;106.82;43.13;;;;;;;;;;5059090;28;20147;-66
2020/12/05 04:40:39;;;;;;;;;;;;;;;;;;5057518;28;20063;-65
2020/12/05 04:43:05;;;;;;;105.53;42.95;;;;;;;;;;5046053;28;19932;-66
2020/12/05 04:45:32;;;;;;;108.90;43.67;;;;;;;;;;5049777;28;20045;-66
2020/12/05 04:47:58;;;;;;;107.45;45.30;;;;;;;;;;5036050;28;20493;-66
2020/12/05 04:50:25;;;;;;;111.13;43.63;;;;;;;;;;5053309;28;20049;-66
2020/12/05 04:52:52;;;;;;;;;;;;;;;;;;5054064;28;20072;-66
2020/12/05 04:55:23;;;;;;;104.55;43.28;;;;;;;;;;5057905;28;19925;-66
2020/12/05 04:57:57;;;;;;;105.60;44.55;;;;;;;;;;5047449;28;20063;-66
2020/12/05 05:00:24;;;;;;;108.93;45.45;;;;;;;;;;5048708;28;20103;-66
2020/12/05 05:02:52;;;;;;;116.65;47.38;;;;;;;;;;5048041;28;20114;-66
2020/12/05 05:05:19;;;;;;;108.75;44.72;;;;;;;;;;5046678;28;20070;-65
2020/12/05 05:07:46;;;;;;;111.00;45.45;;;;;;;;;;5047311;28;20041;-65
2020/12/05 05:10:16;;;;;;;122.22;47.83;;;;;;;;;;5034966;28;20128;-65
2020/12/05 05:12:50;;;;;;;110.70;46.28;;;;;;;;;;5040457;28;20389;-65
2020/12/05 05:15:29;;;;;;;126.32;49.55;;;;;;;;;;5040506;28;20036;-65
2020/12/05 05:18:00;;;;;;;125.53;46.70;;;;;;;;;;5041743;28;20123;-65
2020/12/05 05:20:28;;;;;;;126.82;48.35;;;;;;;;;;5042238;28;20041;-65
2020/12/05 05:23:13;;;;;;;126.20;49.35;;;;;;;;;;5044178;28;20467;-65
2020/12/05 05:25:59;;;;;;;127.60;47.15;;;;;;;;;;5041249;28;20041;-65
2020/12/05 05:28:28;;;;;;;124.07;47.72;;;;;;;;;;5038824;28;20037;-65
2020/12/05 05:31:00;;;;;;;122.07;46.88;;;;;;;;;;5048001;28;20489;-65
2020/12/05 05:33:36;;;;;;;131.00;49.13;;;;;;;;;;5036096;28;20042;-65
2020/12/05 05:36:10;;;;;;;137.43;50.83;;;;;;;;;;5039290;28;20056;-65
2020/12/05 05:38:36;;;;;;;138.20;49.35;;;;;;;;;;5042635;28;20030;-65
2020/12/05 05:41:11;;;;;;;130.25;49.53;;;;;;;;;;5045378;28;20052;-65
2020/12/05 05:43:37;;;;;;;130.60;49.50;;;;;;;;;;5046239;28;20048;-65
2020/12/05 05:46:04;;;;;;;126.63;48.78;;;;;;;;;;5046098;28;20499;-65
2020/12/05 05:48:30;;;;;;;119.47;49.10;;;;;;;;;;5036751;28;20129;-66
2020/12/05 05:50:56;;;;;;;118.85;47.40;;;;;;;;;;5038587;28;20030;-66
2020/12/05 05:53:22;;;;;;;127.68;47.95;;;;;;;;;;5042274;28;20131;-65
2020/12/05 05:55:49;;;;;;;123.63;48.00;;;;;;;;;;5046829;28;20048;-65
2020/12/05 05:58:20;;;;;;;126.95;46.67;;;;;;;;;;5041007;28;20310;-65
2020/12/05 06:00:53;;;;;;;122.85;48.75;;;;;;;;;;5046635;28;20045;-66
2020/12/05 06:03:24;;;;;;;124.65;47.55;;;;;;;;;;5035778;28;20041;-66
2020/12/05 06:05:52;;;;;;;127.40;48.85;;;;;;;;;;5041202;28;20103;-65
2020/12/05 06:08:22;;;;;;;130.43;49.03;;;;;;;;;;5037780;28;20040;-65
2020/12/05 06:10:54;;;;;;;124.85;46.65;;;;;;;;;;5046020;28;20083;-65
2020/12/05 06:13:23;;;;;;;137.05;48.65;;;;;;;;;;5044345;28;20044;-65
2020/12/05 06:15:50;;;;;;;135.75;49.70;;;;;;;;;;5042629;28;20037;-66
2020/12/05 06:18:16;;;;;;;134.25;49.53;;;;;;;;;;5033635;28;20041;-65
2020/12/05 06:20:43;;;;;;;126.65;49.75;;;;;;;;;;5046930;28;20041;-66
2020/12/05 06:23:22;;;;;;;141.50;51.80;;;;;;;;;;5039532;28;20037;-66
2020/12/05 06:25:52;;;;;;;138.55;52.20;;;;;;;;;;5038173;28;20052;-65
2020/12/05 06:28:20;;;;;;;135.32;50.38;;;;;;;;;;5039908;28;20037;-66
2020/12/05 06:30:47;;;;;;;136.57;51.25;;;;;;;;;;5049834;28;20068;-66
2020/12/05 06:33:33;;;;;;;139.40;51.20;;;;;;;;;;5048674;28;20037;-66
2020/12/05 06:36:00;;;;;;;138.82;49.40;;;;;;;;;;5044718;28;20045;-65
2020/12/05 06:38:28;;;;;;;139.80;48.53;;;;;;;;;;5040314;28;20112;-65
2020/12/05 06:40:54;;;;;;;151.23;51.37;;;;;;;;;;5041408;28;20044;-65
2020/12/05 06:43:21;;;;;;;138.63;52.38;;;;;;;;;;5052336;28;20931;-66
2020/12/05 06:45:47;;;;;;;129.45;47.90;;;;;;;;;;5043556;28;20045;-66
2020/12/05 06:48:13;;;;;;;149.30;51.53;;;;;;;;;;5051503;28;20049;-66
2020/12/05 06:50:40;;;;;;;152.98;51.13;;;;;;;;;;5048163;28;20045;-66
2020/12/05 06:53:18;;;;;;;127.65;41.13;;;;;;;;;;5060895;28;20056;-66
2020/12/05 06:55:48;;;;;;;150.10;52.95;;;;;;;;;;5046072;28;20041;-66
2020/12/05 06:58:15;;;;;;;;;;;;;;;;;;5054540;28;20123;-66
2020/12/05 07:00:41;;;;;;;153.68;51.88;;;;;;;;;;5052759;28;19921;-65
2020/12/05 07:03:11;;;;;;;162.95;53.95;;;;;;;;;;5044414;28;20037;-66
2020/12/05 07:05:38;;;;;;;170.93;53.85;;;;;;;;;;5049469;28;20056;-66
2020/12/05 07:08:23;;;;;;;175.02;55.75;;;;;;;;;;5042015;28;20624;-65
2020/12/05 07:10:58;;;;;;;185.60;57.10;;;;;;;;;;5043453;28;20815;-66
2020/12/05 07:13:26;;;;;;;191.15;57.85;;;;;;;;;;5043750;28;20045;-65
2020/12/05 07:16:13;;;;;;;191.55;57.78;;;;;;;;;;5048381;28;20539;-65
2020/12/05 07:18:40;;;;;;;204.20;59.25;;;;;;;;;;5046989;28;20046;-65
2020/12/05 07:21:08;;;;;;;201.43;59.03;;;;;;;;;;5042932;28;20094;-65
2020/12/05 07:23:35;;;;;;;192.65;58.92;;;;;;;;;;5059361;28;20111;-66
2020/12/05 07:26:03;;;;;;;191.68;58.20;;;;;;;;;;5040554;28;20072;-65
2020/12/05 07:28:30;;;;;;;198.95;59.10;;;;;;;;;;5055416;28;20033;-66
2020/12/05 07:30:56;;;;;;;204.77;57.80;;;;;;;;;;5042814;28;20049;-66
2020/12/05 07:33:23;;;;;;;194.70;60.03;;;;;;;;;;5037249;28;20223;-66
2020/12/05 07:35:59;;;;;;;211.98;59.70;;;;;;;;;;5056214;28;20052;-66
2020/12/05 07:38:26;;;;;;;194.88;57.78;;;;;;;;;;5043203;28;20121;-65
2020/12/05 07:40:53;;;;;;;;;;;;;;;;;;5049646;28;20075;-66
2020/12/05 07:43:20;;;;;;;199.50;58.67;;;;;;;;;;5047838;28;19921;-65
2020/12/05 07:45:49;;;;;;;205.57;58.60;;;;;;;;;;5048644;28;20124;-65
2020/12/05 07:48:17;;;;;;;202.05;60.40;;;;;;;;;;5047944;28;20069;-65
2020/12/05 07:50:44;;;;;;;217.32;60.65;;;;;;;;;;5041612;28;20042;-66
2020/12/05 07:53:22;;;;;;;171.73;48.70;;;;;;;;;;5035490;28;20033;-66
2020/12/05 07:55:49;;;;;;;224.57;60.67;;;;;;;;;;5056926;28;20045;-65
2020/12/05 07:58:16;;;;;;;215.45;59.78;;;;;;;;;;5054377;28;20041;-66
2020/12/05 08:00:42;;;;;;;223.55;60.88;;;;;;;;;;5043998;28;20041;-65
2020/12/05 08:03:28;;;;;;;210.27;59.70;;;;;;;;;;5043352;28;20063;-66
2020/12/05 08:06:01;;;;;;;197.40;59.05;;;;;;;;;;5043563;28;20040;-65
2020/12/05 08:08:28;;;;;;;226.48;63.95;;;;;;;;;;5048483;28;20041;-65
2020/12/05 08:11:02;;;;;;;222.57;63.45;;;;;;;;;;5050798;28;20033;-66
2020/12/05 08:13:29;;;;;;;200.30;62.90;;;;;;;;;;5030678;28;20040;-65
2020/12/05 08:15:59;;;;;;;219.90;63.17;;;;;;;;;;5050569;28;20041;-66
2020/12/05 08:18:26;;;;;;;214.00;62.35;;;;;;;;;;5048345;28;20036;-65
2020/12/05 08:20:53;;;;;;;218.32;65.43;;;;;;;;;;5039232;28;20049;-65
2020/12/05 08:23:20;;;;;;;213.35;65.55;;;;;;;;;;5040047;28;20033;-65
2020/12/05 08:25:48;;;;;;;211.32;63.65;;;;;;;;;;5044606;28;20045;-65
2020/12/05 08:28:20;;;;;;;220.43;64.80;;;;;;;;;;5039974;28;20083;-65
2020/12/05 08:30:47;;;;;;;216.63;66.10;;;;;;;;;;5045105;28;20048;-65
2020/12/05 08:33:14;;;;;;;218.05;65.18;;;;;;;;;;5043037;28;20040;-65
2020/12/05 08:35:40;;;;;;;215.15;64.45;;;;;;;;;;5039502;28;20049;-65
2020/12/05 08:38:10;;;;;;;210.32;62.72;;;;;;;;;;5042964;28;20048;-66
2020/12/05 08:40:37;;;;;;;202.50;65.47;;;;;;;;;;5046810;28;20040;-66
2020/12/05 08:43:05;;;;;;;210.35;63.47;;;;;;;;;;5054304;28;20040;-66
2020/12/05 08:45:31;;;;;;;;;;;;;;;;;;5041488;28;20037;-66
2020/12/05 08:47:57;;;;;;;204.55;62.85;;;;;;;;;;5051288;28;20528;-66
2020/12/05 08:50:41;;;;;;;214.93;64.40;;;;;;;;;;5049420;28;20045;-66
2020/12/05 08:53:07;;;;;;;236.25;65.60;;;;;;;;;;5037015;28;20041;-66
2020/12/05 08:55:33;;;;;;;208.43;63.47;;;;;;;;;;5041735;28;20064;-66
2020/12/05 08:58:01;;;;;;;204.10;65.57;;;;;;;;;;5036970;28;20041;-66
2020/12/05 09:00:28;;;;;;;194.40;61.20;;;;;;;;;;5035880;28;20045;-66
2020/12/05 09:02:54;;;;;;;213.95;64.25;;;;;;;;;;5048073;28;20099;-66
2020/12/05 09:05:21;;;;;;;213.18;63.50;;;;;;;;;;5042458;28;20673;-66
2020/12/05 09:07:54;;;;;;;196.63;61.80;;;;;;;;;;5042029;28;20092;-66
2020/12/05 09:10:21;;;;;;;206.02;64.38;;;;;;;;;;5043644;28;20524;-66
2020/12/05 09:12:47;;;;;;;209.15;64.03;;;;;;;;;;5045688;28;20052;-66
2020/12/05 09:15:13;;;;;;;199.77;62.60;;;;;;;;;;5044857;28;20037;-66
2020/12/05 09:17:42;;;;;;;186.13;62.85;;;;;;;;;;5045465;28;20291;-66
2020/12/05 09:20:13;;;;;;;182.73;61.53;;;;;;;;;;5041905;28;20033;-66
2020/12/05 09:22:44;;;;;;;185.90;62.10;;;;;;;;;;5033883;28;20080;-66
2020/12/05 09:25:11;;;;;;;178.95;57.33;;;;;;;;;;5025372;28;20045;-65
2020/12/05 09:27:39;;;;;;;159.85;52.97;;;;;;;;;;5050095;28;20049;-66
2020/12/05 09:30:08;;;;;;;160.38;56.53;;;;;;;;;;5021696;28;20469;-66
2020/12/05 09:32:35;;;;;;;151.48;54.35;;;;;;;;;;5034717;28;20052;-66
2020/12/05 09:35:03;;;;;;;153.32;55.33;;;;;;;;;;5054602;28;20048;-66
2020/12/05 09:37:29;;;;;;;163.18;54.30;;;;;;;;;;5048100;28;20060;-66
2020/12/05 09:39:56;;;;;;;156.27;56.20;;;;;;;;;;5046391;28;20489;-65
2020/12/05 09:42:23;;;;;;;123.13;43.70;;;;;;;;;;5039330;28;20143;-65
2020/12/05 09:44:50;;;;;;;158.00;58.33;;;;;;;;;;5049189;28;20040;-66
2020/12/05 09:47:18;;;;;;;158.07;57.70;;;;;;;;;;5046441;28;20087;-66
2020/12/05 09:49:44;;;;;;;149.60;56.72;;;;;;;;;;5055302;28;20511;-66
2020/12/05 09:52:11;;;;;;;158.13;58.92;;;;;;;;;;5052236;28;20115;-65
2020/12/05 09:54:37;;;;;;;158.95;57.95;;;;;;;;;;5047713;28;20409;-66
2020/12/05 09:57:10;;;;;;;204.35;60.58;;;;;;;;;;5039836;28;20049;-66
2020/12/05 09:59:36;;;;;;;188.32;59.20;;;;;;;;;;5037344;28;20048;-66
2020/12/05 10:02:05;;;;;;;162.25;56.28;;;;;;;;;;5052525;28;20102;-66
2020/12/05 10:04:32;;;;;;;158.60;56.58;;;;;;;;;;5044254;28;20037;-66
2020/12/05 10:06:58;;;;;;;176.15;59.80;;;;;;;;;;5047916;28;20106;-66
2020/12/05 10:09:25;;;;;;;177.93;56.22;;;;;;;;;;5045020;28;20046;-66
2020/12/05 10:11:51;;;;;;;148.40;52.72;;;;;;;;;;5056550;28;20033;-66
2020/12/05 10:14:17;;;;;;;145.95;51.70;;;;;;;;;;5044818;28;20044;-66
2020/12/05 10:16:43;;;;;;;143.30;52.78;;;;;;;;;;5053528;28;20047;-66
2020/12/05 10:19:10;;;;;;;143.27;52.85;;;;;;;;;;5049327;28;20036;-66
2020/12/05 10:21:36;;;;;;;135.13;53.15;;;;;;;;;;5040093;28;20060;-66
2020/12/05 10:24:03;;;;;;;134.38;53.83;;;;;;;;;;5049415;28;20055;-66
2020/12/05 10:26:30;;;;;;;137.15;54.65;;;;;;;;;;5048683;28;20059;-66
2020/12/05 10:28:56;;;;;;;127.43;52.92;;;;;;;;;;5041504;28;20037;-66
2020/12/05 10:31:23;;;;;;;129.48;53.80;;;;;;;;;;5035453;28;20120;-66
2020/12/05 10:33:49;;;;;;;137.00;56.00;;;;;;;;;;5047134;28;20037;-66
2020/12/05 10:36:20;;;;;;;138.52;56.65;;;;;;;;;;5057799;28;20040;-66
2020/12/05 10:38:47;;;;;;;133.30;55.20;;;;;;;;;;5050014;28;20112;-66
2020/12/05 10:41:13;;;;;;;132.95;53.85;;;;;;;;;;5046199;28;20075;-66
2020/12/05 10:43:40;;;;;;;142.98;57.38;;;;;;;;;;5049686;28;20040;-66
2020/12/05 10:46:06;;;;;;;130.23;55.47;;;;;;;;;;5048998;28;20048;-66
2020/12/05 10:48:33;;;;;;;129.75;53.97;;;;;;;;;;5049730;28;20307;-66
2020/12/05 10:51:00;;;;;;;133.70;55.50;;;;;;;;;;5040942;28;20115;-66
2020/12/05 10:53:30;;;;;;;126.22;55.63;;;;;;;;;;5055582;28;20048;-66
2020/12/05 10:55:58;;;;;;;115.82;52.15;;;;;;;;;;5044402;28;20060;-66
2020/12/05 10:58:24;;;;;;;133.55;54.38;;;;;;;;;;5049873;28;20060;-66
2020/12/05 11:00:50;;;;;;;116.45;49.83;;;;;;;;;;5055365;28;20037;-66
2020/12/05 11:03:16;;;;;;;123.97;49.38;;;;;;;;;;5043777;28;20497;-66
2020/12/05 11:05:42;;;;;;;109.35;46.42;;;;;;;;;;5052140;28;20045;-66
2020/12/05 11:08:09;;;;;;;113.85;47.67;;;;;;;;;;5050844;28;20047;-66
2020/12/05 11:10:35;;;;;;;106.65;45.30;;;;;;;;;;5042407;28;20441;-66
2020/12/05 11:13:01;;;;;;;111.75;49.47;;;;;;;;;;5036997;28;20044;-66
2020/12/05 11:15:29;;;;;;;114.45;46.70;;;;;;;;;;5039863;28;20037;-66
2020/12/05 11:17:55;;;;;;;118.82;50.35;;;;;;;;;;5046986;28;20053;-66
2020/12/05 11:20:22;;;;;;;115.60;50.95;;;;;;;;;;5044093;28;20591;-66
2020/12/05 11:22:49;;;;;;;;;;;;;;;;;;5039305;28;20033;-66
2020/12/05 11:25:15;;;;;;;116.70;47.33;;;;;;;;;;5041110;28;19920;-66
2020/12/05 11:27:42;;;;;;;;;;;;;;;;;;5050921;28;20037;-66
2020/12/05 11:30:09;;;;;;;113.70;48.78;;;;;;;;;;5046551;28;19924;-66
2020/12/05 11:32:37;;;;;;;118.55;50.13;;;;;;;;;;5044521;28;20566;-66
2020/12/05 11:35:04;;;;;;;112.93;51.35;;;;;;;;;;5040879;28;20041;-66
2020/12/05 11:37:30;;;;;;;103.05;49.25;;;;;;;;;;5044183;28;20053;-67
2020/12/05 11:39:57;;;;;;;108.75;49.53;;;;;;;;;;5042635;28;20040;-67
2020/12/05 11:42:28;;;;;;;107.18;48.55;;;;;;;;;;5041500;28;20057;-67
2020/12/05 11:44:54;;;;;;;106.57;49.05;;;;;;;;;;5047428;28;20040;-67
2020/12/05 11:47:20;;;;;;;104.28;49.47;;;;;;;;;;5043420;28;20067;-67
2020/12/05 11:49:47;;;;;;;105.00;47.65;;;;;;;;;;5046002;28;20052;-67
2020/12/05 11:52:13;;;;;;;107.10;48.97;;;;;;;;;;5038297;28;20049;-66
2020/12/05 11:54:39;;;;;;;109.55;49.20;;;;;;;;;;5044224;28;20047;-67
2020/12/05 11:57:05;;;;;;;108.18;49.20;;;;;;;;;;5046026;28;20047;-67
2020/12/05 11:59:31;;;;;;;106.53;48.60;;;;;;;;;;5053618;28;20069;-67
2020/12/05 12:01:59;;;;;;;107.45;49.67;;;;;;;;;;5041907;28;20052;-68
2020/12/05 12:04:25;;;;;;;113.57;50.40;;;;;;;;;;5044240;28;20056;-67
2020/12/05 12:06:52;;;;;;;116.85;50.25;;;;;;;;;;5048488;28;20131;-67
2020/12/05 12:09:19;;;;;;;109.10;52.20;;;;;;;;;;5039587;28;20159;-67
2020/12/05 12:11:45;;;;;;;118.10;52.83;;;;;;;;;;5047308;28;20531;-67
2020/12/05 12:14:11;;;;;;;119.20;51.55;;;;;;;;;;5043365;28;20032;-67
2020/12/05 12:16:38;;;;;;;118.50;50.95;;;;;;;;;;5040211;28;20045;-67
2020/12/05 12:19:04;;;;;;;115.97;51.80;;;;;;;;;;5043420;28;20497;-67
2020/12/05 12:21:30;;;;;;;118.28;52.25;;;;;;;;;;5045020;28;20049;-67
2020/12/05 12:23:56;;;;;;;117.82;52.00;;;;;;;;;;5041835;28;20278;-67
2020/12/05 12:26:29;;;;;;;120.05;52.78;;;;;;;;;;5047402;28;20045;-67
2020/12/05 12:28:56;;;;;;;128.82;57.28;;;;;;;;;;5038504;28;20501;-67
2020/12/05 12:31:27;;;;;;;129.93;54.25;;;;;;;;;;5038727;28;20048;-67
2020/12/05 12:33:54;;;;;;;125.57;54.65;;;;;;;;;;5045078;28;20067;-68
2020/12/05 12:36:21;;;;;;;126.55;54.33;;;;;;;;;;5038009;28;20034;-67
2020/12/05 12:38:48;;;;;;;123.35;54.67;;;;;;;;;;5038222;28;20099;-67
2020/12/05 12:41:17;;;;;;;124.50;54.60;;;;;;;;;;5041799;28;20045;-67
2020/12/05 12:43:45;;;;;;;131.20;56.95;;;;;;;;;;5035008;28;20053;-67
2020/12/05 12:46:12;;;;;;;127.13;54.77;;;;;;;;;;5045320;28;20044;-67
2020/12/05 12:48:39;;;;;;;120.45;54.95;;;;;;;;;;5036347;28;20845;-68
2020/12/05 12:51:08;;;;;;;123.05;54.65;;;;;;;;;;5042216;28;20417;-67
2020/12/05 12:53:35;;;;;;;125.32;55.80;;;;;;;;;;5036823;28;20037;-67
2020/12/05 12:56:02;;;;;;;120.55;51.63;;;;;;;;;;5038219;28;20509;-67
2020/12/05 12:58:43;;;;;;;125.13;53.90;;;;;;;;;;5042585;28;20381;-67
2020/12/05 13:01:09;;;;;;;110.72;51.35;;;;;;;;;;5038060;28;20045;-67
2020/12/05 13:03:35;;;;;;;113.47;51.50;;;;;;;;;;5044911;28;20559;-67
2020/12/05 13:06:01;;;;;;;115.75;54.15;;;;;;;;;;5042322;28;20473;-67
2020/12/05 13:08:29;;;;;;;111.82;50.70;;;;;;;;;;5040226;28;20049;-67
2020/12/05 13:10:56;;;;;;;126.65;54.33;;;;;;;;;;5044488;28;20037;-67
2020/12/05 13:13:22;;;;;;;112.60;53.97;;;;;;;;;;5042703;28;20040;-67
2020/12/05 13:15:48;;;;;;;117.53;51.00;;;;;;;;;;5049154;28;20041;-67
2020/12/05 13:18:14;;;;;;;126.57;53.67;;;;;;;;;;5029974;28;20041;-67
2020/12/05 13:20:40;;;;;;;115.47;51.45;;;;;;;;;;5045535;28;20144;-67
2020/12/05 13:23:06;;;;;;;120.25;54.38;;;;;;;;;;5044986;28;20047;-67
2020/12/05 13:25:35;;;;;;;119.22;53.60;;;;;;;;;;5040142;28;20038;-67
2020/12/05 13:28:01;;;;;;;120.60;51.80;;;;;;;;;;5042846;28;20132;-67
2020/12/05 13:30:27;;;;;;;100.18;47.95;;;;;;;;;;5049198;28;20037;-67
2020/12/05 13:32:54;;;;;;;105.07;48.33;;;;;;;;;;5045494;28;20041;-67
2020/12/05 13:35:20;;;;;;;108.47;45.92;;;;;;;;;;5037086;28;20140;-67
2020/12/05 13:37:46;;;;;;;102.97;48.08;;;;;;;;;;5040063;28;20041;-67
2020/12/05 13:40:12;;;;;;;108.35;49.85;;;;;;;;;;5047962;28;20109;-67
2020/12/05 13:42:38;;;;;;;106.20;48.17;;;;;;;;;;5041463;28;20063;-67
2020/12/05 13:45:05;;;;;;;110.97;48.42;;;;;;;;;;5041146;28;20033;-67
2020/12/05 13:47:31;;;;;;;113.50;51.85;;;;;;;;;;5036868;28;20056;-67
2020/12/05 13:49:57;;;;;;;121.30;53.33;;;;;;;;;;5043563;28;20052;-67
2020/12/05 13:52:23;;;;;;;113.63;50.42;;;;;;;;;;5036725;28;20057;-67
2020/12/05 13:54:49;;;;;;;108.05;50.92;;;;;;;;;;5039088;28;20049;-67
2020/12/05 13:57:15;;;;;;;115.05;51.67;;;;;;;;;;5038014;28;20428;-67
2020/12/05 13:59:41;;;;;;;114.10;50.95;;;;;;;;;;5038545;28;20042;-67
2020/12/05 14:02:10;;;;;;;122.05;54.33;;;;;;;;;;5024164;28;20041;-67
2020/12/05 14:04:37;;;;;;;110.38;50.03;;;;;;;;;;5045273;28;20500;-67
2020/12/05 14:07:03;;;;;;;110.75;51.65;;;;;;;;;;5043314;28;20048;-67
2020/12/05 14:09:30;;;;;;;120.47;52.42;;;;;;;;;;5046482;28;20140;-67
2020/12/05 14:12:00;;;;;;;113.78;51.92;;;;;;;;;;5042785;28;20493;-67
2020/12/05 14:14:27;;;;;;;114.97;52.63;;;;;;;;;;5039815;28;20247;-67
2020/12/05 14:16:53;;;;;;;123.80;54.85;;;;;;;;;;5040382;28;20137;-67